createdAt,value
2022-11-24T00:00:00.750Z,92.67
2022-11-24T00:02:31.242Z,93.05
2022-11-24T00:05:01.103Z,92.67
2022-11-24T00:07:30.921Z,92.81
2022-11-24T00:10:00.971Z,92.96
2022-11-24T00:12:30.681Z,93.29
2022-11-24T00:15:00.427Z,93.59
2022-11-24T00:17:30.569Z,93.18
2022-11-24T00:20:00.299Z,92.82
2022-11-24T00:22:30.194Z,92.74
2022-11-24T00:24:59.858Z,92.77
2022-11-24T00:27:29.549Z,92.87
2022-11-24T00:30:00.651Z,92.63
2022-11-24T00:32:31.960Z,93.11
2022-11-24T00:35:02.015Z,93.18
2022-11-24T00:37:32.175Z,93.46
2022-11-24T00:40:01.848Z,93.57
2022-11-24T00:42:31.537Z,93.89
2022-11-24T00:45:12.998Z,94.32
2022-11-24T00:47:43.954Z,94.33
2022-11-24T00:50:13.685Z,94.60
2022-11-24T00:52:43.365Z,94.59
2022-11-24T00:55:13.164Z,94.88
2022-11-24T00:57:42.904Z,95.14
2022-11-24T01:00:12.905Z,95.57
2022-11-24T01:02:42.654Z,95.78
2022-11-24T01:05:12.936Z,96.23
2022-11-24T01:07:42.659Z,96.15
2022-11-24T01:10:13.557Z,96.57
2022-11-24T01:12:44.167Z,96.70
2022-11-24T01:15:14.078Z,96.23
2022-11-24T01:17:43.774Z,96.08
2022-11-24T01:20:14.737Z,96.25
2022-11-24T01:22:44.465Z,96.39
2022-11-24T01:25:14.223Z,96.67
2022-11-24T01:27:43.937Z,97.03
2022-11-24T01:30:13.780Z,96.91
2022-11-24T01:32:43.464Z,96.91
2022-11-24T01:35:14.124Z,96.59
2022-11-24T01:37:44.274Z,96.35
2022-11-24T01:40:14.425Z,96.42
2022-11-24T01:42:54.879Z,96.30
2022-11-24T01:45:37.745Z,96.51
2022-11-24T01:48:12.178Z,96.49
2022-11-24T01:50:43.214Z,96.53
2022-11-24T01:53:15.539Z,96.81
2022-11-24T01:55:45.691Z,96.73
2022-11-24T01:58:19.796Z,96.73
2022-11-24T02:00:49.975Z,96.67
2022-11-24T02:03:27.342Z,96.78
2022-11-24T02:06:21.699Z,96.71
2022-11-24T02:09:14.684Z,96.67
2022-11-24T02:11:46.522Z,97.12
2022-11-24T02:14:19.515Z,97.20
2022-11-24T02:16:54.327Z,97.32
2022-11-24T02:19:42.011Z,97.34
2022-11-24T02:22:31.166Z,97.36
2022-11-24T02:25:10.333Z,97.82
2022-11-24T02:27:40.481Z,97.57
2022-11-24T02:30:10.949Z,97.59
2022-11-24T02:32:44.106Z,97.46
2022-11-24T02:35:15.913Z,97.51
2022-11-24T02:37:46.016Z,97.62
2022-11-24T02:40:26.109Z,97.74
2022-11-24T02:43:01.400Z,97.64
2022-11-24T02:45:32.954Z,97.83
2022-11-24T02:48:03.675Z,97.99
2022-11-24T02:50:33.524Z,98.00
2022-11-24T02:53:03.431Z,98.07
2022-11-24T02:55:33.156Z,98.13
2022-11-24T02:58:02.867Z,98.19
2022-11-24T03:00:32.587Z,98.04
2022-11-24T03:03:02.516Z,98.41
2022-11-24T03:05:32.485Z,98.27
2022-11-24T03:08:02.259Z,98.52
2022-11-24T03:10:32.120Z,98.49
2022-11-24T03:13:01.807Z,98.67
2022-11-24T03:15:31.651Z,98.66
2022-11-24T03:18:01.458Z,98.68
2022-11-24T03:20:32.021Z,98.88
2022-11-24T03:23:02.175Z,98.97
2022-11-24T03:25:31.964Z,98.99
2022-11-24T03:28:01.847Z,99.13
2022-11-24T03:30:31.820Z,99.16
2022-11-24T03:33:01.511Z,99.28
2022-11-24T03:35:31.293Z,99.09
2022-11-24T03:38:00.972Z,99.10
2022-11-24T03:40:30.657Z,99.10
2022-11-24T03:43:00.641Z,99.32
2022-11-24T03:45:45.423Z,99.26
2022-11-24T03:48:18.024Z,99.25
2022-11-24T03:50:59.585Z,99.31
2022-11-24T03:53:32.055Z,99.23
2022-11-24T03:56:03.198Z,99.24
2022-11-24T03:58:33.214Z,99.26
2022-11-24T04:01:04.065Z,99.34
2022-11-24T04:03:34.248Z,99.36
2022-11-24T04:06:03.917Z,99.49
2022-11-24T04:08:33.925Z,99.58
2022-11-24T04:11:03.598Z,99.59
2022-11-24T04:13:33.649Z,99.54
2022-11-24T04:16:07.408Z,99.69
2022-11-24T04:18:37.634Z,99.78
2022-11-24T04:21:07.427Z,99.75
2022-11-24T04:23:37.106Z,99.66
2022-11-24T04:26:06.963Z,99.75
2022-11-24T04:28:36.633Z,99.75
2022-11-24T04:31:07.590Z,99.77
2022-11-24T04:33:37.698Z,99.78
2022-11-24T04:36:08.011Z,99.88
2022-11-24T04:39:25.369Z,99.79
2022-11-24T04:41:27.656Z,99.75
2022-11-24T04:43:57.320Z,99.83
2022-11-24T04:46:27.970Z,99.88
2022-11-24T04:48:57.974Z,99.90
2022-11-24T04:51:27.761Z,99.99
2022-11-24T04:53:57.419Z,99.91
2022-11-24T04:56:27.094Z,99.99
2022-11-24T04:58:56.781Z,99.99
2022-11-24T05:01:26.771Z,99.98
2022-11-24T05:03:57.227Z,99.99
2022-11-24T05:06:27.584Z,99.99
2022-11-24T05:08:57.362Z,99.99
2022-11-24T05:11:27.372Z,99.99
2022-11-24T05:13:57.036Z,99.99
2022-11-24T05:16:27.030Z,99.99
2022-11-24T05:18:56.802Z,99.99
2022-11-24T05:21:26.727Z,99.99
2022-11-24T05:23:57.345Z,99.99
2022-11-24T05:26:27.721Z,99.99
2022-11-24T05:28:57.529Z,99.99
2022-11-24T05:31:27.271Z,99.99
2022-11-24T05:33:56.974Z,99.99
2022-11-24T05:36:45.391Z,99.99
2022-11-24T05:39:15.470Z,99.99
2022-11-24T05:41:45.155Z,99.99
2022-11-24T05:44:14.867Z,99.99
2022-11-24T05:46:44.578Z,99.99
2022-11-24T05:49:14.660Z,99.99
2022-11-24T05:51:44.361Z,99.99
2022-11-24T05:54:14.033Z,99.99
2022-11-24T05:56:43.718Z,99.99
2022-11-24T05:59:13.524Z,99.99
2022-11-24T06:01:43.597Z,99.99
2022-11-24T06:04:13.394Z,99.99
2022-11-24T06:06:43.241Z,99.99
2022-11-24T06:09:12.904Z,99.99
2022-11-24T06:11:42.603Z,99.99
2022-11-24T06:14:12.336Z,99.99
2022-11-24T06:16:42.326Z,99.99
2022-11-24T06:19:12.963Z,99.99
2022-11-24T06:21:42.855Z,99.99
2022-11-24T06:24:12.694Z,99.99
2022-11-24T06:26:42.883Z,99.99
2022-11-24T06:29:12.649Z,99.99
2022-11-24T06:31:42.400Z,99.99
2022-11-24T06:34:13.841Z,99.99
2022-11-24T06:36:43.917Z,99.99
2022-11-24T06:39:13.624Z,99.99
2022-11-24T06:41:43.660Z,99.99
2022-11-24T06:44:13.368Z,99.99
2022-11-24T06:46:43.688Z,99.99
2022-11-24T06:49:13.352Z,99.99
2022-11-24T06:51:43.773Z,99.99
2022-11-24T06:54:17.084Z,99.99
2022-11-24T06:56:47.369Z,99.99
2022-11-24T06:59:21.791Z,99.99
2022-11-24T07:01:52.047Z,99.99
2022-11-24T07:04:21.828Z,99.99
2022-11-24T07:06:51.527Z,99.99
2022-11-24T07:09:21.233Z,99.99
2022-11-24T07:11:51.137Z,99.99
2022-11-24T07:14:21.732Z,99.99
2022-11-24T07:16:51.518Z,99.99
2022-11-24T07:19:24.878Z,99.99
2022-11-24T07:21:55.313Z,99.99
2022-11-24T07:24:25.917Z,99.99
2022-11-24T07:26:56.188Z,99.99
2022-11-24T07:29:25.885Z,99.99
2022-11-24T07:31:56.863Z,99.99
2022-11-24T07:34:29.652Z,99.99
2022-11-24T07:36:58.886Z,99.99
2022-11-24T07:39:28.469Z,99.99
2022-11-24T07:41:59.637Z,99.99
2022-11-24T07:44:29.482Z,99.99
2022-11-24T07:46:59.394Z,99.99
2022-11-24T07:49:28.840Z,99.99
2022-11-24T07:51:58.474Z,99.99
2022-11-24T07:54:28.474Z,99.99
2022-11-24T07:56:58.424Z,99.99
2022-11-24T07:59:28.089Z,99.99
2022-11-24T08:01:57.791Z,99.99
2022-11-24T08:04:27.508Z,99.99
2022-11-24T08:06:57.407Z,99.99
2022-11-24T08:09:27.073Z,99.99
2022-11-24T08:11:57.573Z,99.99
2022-11-24T08:14:27.248Z,99.99
2022-11-24T08:16:56.558Z,99.99
2022-11-24T08:19:26.519Z,99.99
2022-11-24T08:21:57.371Z,99.99
2022-11-24T08:24:29.684Z,99.99
2022-11-24T08:26:59.747Z,99.99
2022-11-24T08:29:32.922Z,99.99
2022-11-24T08:32:02.854Z,99.99
2022-11-24T08:34:32.875Z,99.99
2022-11-24T08:37:05.473Z,99.99
2022-11-24T08:39:35.695Z,99.99
2022-11-24T08:42:05.507Z,99.99
2022-11-24T08:44:35.856Z,99.99
2022-11-24T08:47:06.283Z,99.99
2022-11-24T08:49:36.016Z,99.99
2022-11-24T08:52:06.083Z,99.99
2022-11-24T08:54:36.033Z,99.99
2022-11-24T08:57:05.993Z,99.99
2022-11-24T08:59:35.740Z,99.99
2022-11-24T09:02:05.504Z,99.99
2022-11-24T09:04:35.398Z,99.99
2022-11-24T09:07:05.429Z,99.99
2022-11-24T09:09:35.095Z,99.99
2022-11-24T09:12:06.578Z,99.99
2022-11-24T09:14:39.163Z,99.99
2022-11-24T09:17:08.885Z,99.99
2022-11-24T09:19:38.801Z,99.99
2022-11-24T09:22:08.842Z,94.86
2022-11-24T09:24:41.159Z,96.33
2022-11-24T09:27:11.817Z,95.91
2022-11-24T09:29:41.542Z,97.19
2022-11-24T09:32:11.544Z,95.95
2022-11-24T09:34:41.220Z,95.52
2022-11-24T09:37:10.901Z,94.89
2022-11-24T09:39:40.599Z,94.12
2022-11-24T09:42:16.095Z,83.32
2022-11-24T09:44:51.756Z,80.01
2022-11-24T09:47:39.963Z,84.63
2022-11-24T09:50:21.221Z,87.79
2022-11-24T09:53:04.772Z,90.91
2022-11-24T09:55:57.607Z,92.48
2022-11-24T09:58:39.021Z,93.96
2022-11-24T10:01:21.745Z,94.10
2022-11-24T10:03:54.034Z,94.49
2022-11-24T10:06:25.583Z,94.29
2022-11-24T10:09:11.297Z,94.04
2022-11-24T10:11:44.522Z,93.24
2022-11-24T10:14:38.237Z,92.55
2022-11-24T10:17:13.636Z,80.25
2022-11-24T10:20:29.568Z,74.31
2022-11-24T10:23:20.727Z,75.25
2022-11-24T10:26:01.476Z,81.83
2022-11-24T10:28:46.168Z,83.79
2022-11-24T10:31:21.929Z,87.10
2022-11-24T10:33:52.441Z,88.05
2022-11-24T10:36:34.537Z,85.98
2022-11-24T10:39:13.870Z,86.29
2022-11-24T10:41:48.441Z,86.11
2022-11-24T10:44:18.412Z,86.25
2022-11-24T10:46:48.456Z,82.68
2022-11-24T10:49:27.256Z,81.64
2022-11-24T10:52:08.916Z,82.93
2022-11-24T10:55:01.363Z,82.30
2022-11-24T10:57:37.966Z,80.41
2022-11-24T11:00:20.401Z,77.01
2022-11-24T11:02:51.993Z,75.77
2022-11-24T11:05:34.607Z,75.72
2022-11-24T11:08:16.562Z,75.50
2022-11-24T11:10:47.897Z,74.48
2022-11-24T11:13:26.451Z,72.49
2022-11-24T11:15:57.970Z,72.41
2022-11-24T11:18:33.919Z,75.12
2022-11-24T11:21:05.184Z,73.57
2022-11-24T11:23:37.647Z,73.85
2022-11-24T11:26:27.022Z,74.06
2022-11-24T11:34:58.300Z,77.71
2022-11-24T11:37:34.400Z,79.34
2022-11-24T11:40:04.980Z,78.46
2022-11-24T11:45:31.098Z,78.03
2022-11-24T11:48:05.349Z,75.46
2022-11-24T11:53:47.987Z,79.18
2022-11-24T11:56:26.699Z,74.71
2022-11-24T11:59:12.501Z,67.70
2022-11-24T12:02:12.001Z,72.88
2022-11-24T12:04:55.101Z,72.49
2022-11-24T12:07:56.199Z,72.69
2022-11-24T12:10:47.955Z,69.16
2022-11-24T12:13:23.493Z,71.69
2022-11-24T12:15:57.521Z,75.23
2022-11-24T12:19:00.490Z,76.31
2022-11-24T12:21:53.572Z,76.69
2022-11-24T12:24:35.696Z,76.45
2022-11-24T12:27:27.035Z,73.82
2022-11-24T12:30:12.497Z,70.04
2022-11-24T12:33:12.800Z,68.02
2022-11-24T12:35:55.531Z,69.37
2022-11-24T12:39:07.650Z,66.54
2022-11-24T12:41:46.356Z,65.00
2022-11-24T12:44:37.377Z,65.56
2022-11-24T12:47:13.269Z,67.04
2022-11-24T12:50:05.051Z,65.14
2022-11-24T12:52:40.983Z,59.23
2022-11-24T12:55:19.807Z,60.40
2022-11-24T12:58:11.372Z,61.23
2022-11-24T13:01:03.532Z,59.13
2022-11-24T13:03:51.983Z,60.39
2022-11-24T13:06:58.838Z,59.59
2022-11-24T13:09:28.807Z,58.28
2022-11-24T13:12:14.968Z,58.35
2022-11-24T13:14:47.591Z,62.55
2022-11-24T13:17:50.242Z,58.20
2022-11-24T13:20:42.068Z,55.00
2022-11-24T13:23:26.471Z,57.91
2022-11-24T13:26:16.133Z,58.92
2022-11-24T13:29:18.310Z,55.20
2022-11-24T13:31:55.024Z,55.30
2022-11-24T13:34:46.678Z,58.31
2022-11-24T13:37:35.259Z,57.00
2022-11-24T13:40:32.034Z,56.33
2022-11-24T13:43:03.832Z,55.70
2022-11-24T13:45:43.580Z,56.41
2022-11-24T13:48:22.944Z,53.29
2022-11-24T13:50:56.152Z,53.37
2022-11-24T13:53:49.017Z,53.38
2022-11-24T13:56:19.973Z,54.33
2022-11-24T13:59:02.312Z,51.56
2022-11-24T14:01:34.979Z,49.62
2022-11-24T14:04:31.084Z,50.74
2022-11-24T14:07:09.457Z,52.41
2022-11-24T14:09:54.459Z,51.58
2022-11-24T14:12:27.185Z,53.35
2022-11-24T14:15:25.381Z,55.36
2022-11-24T14:17:55.530Z,54.23
2022-11-24T14:20:27.735Z,53.60
2022-11-24T14:22:57.974Z,49.80
2022-11-24T14:25:33.018Z,50.59
2022-11-24T14:28:03.327Z,46.76
2022-11-24T14:30:33.114Z,49.36
2022-11-24T14:33:05.768Z,49.43
2022-11-24T14:35:43.643Z,46.86
2022-11-24T14:38:15.035Z,50.08
2022-11-24T14:40:54.509Z,52.66
2022-11-24T14:43:35.625Z,45.37
2022-11-24T14:46:07.163Z,52.69
2022-11-24T14:48:55.166Z,48.65
2022-11-24T14:51:29.092Z,47.13
2022-11-24T14:54:07.880Z,46.06
2022-11-24T14:56:40.353Z,47.39
2022-11-24T14:59:26.520Z,52.51
2022-11-24T15:01:58.132Z,51.62
2022-11-24T15:05:00.737Z,49.61
2022-11-24T15:07:30.419Z,46.96
2022-11-24T15:10:02.960Z,49.68
2022-11-24T15:12:35.954Z,45.86
2022-11-24T15:15:16.403Z,50.29
2022-11-24T15:17:51.453Z,47.42
2022-11-24T15:20:45.837Z,48.37
2022-11-24T15:23:31.631Z,48.57
2022-11-24T15:26:04.924Z,45.42
2022-11-24T15:28:35.285Z,51.93
2022-11-24T15:31:07.865Z,44.39
2022-11-24T15:33:38.973Z,44.19
2022-11-24T15:36:09.301Z,49.74
2022-11-24T15:38:39.185Z,43.71
2022-11-24T15:41:22.129Z,47.99
2022-11-24T15:43:59.854Z,48.15
2022-11-24T15:46:31.322Z,47.41
2022-11-24T15:49:01.453Z,43.09
2022-11-24T15:51:31.437Z,45.77
2022-11-24T15:54:01.655Z,50.61
2022-11-24T15:56:36.378Z,46.81
2022-11-24T15:59:06.700Z,46.91
2022-11-24T16:01:36.583Z,43.39
2022-11-24T16:04:06.887Z,46.50
2022-11-24T16:06:38.015Z,45.75
2022-11-24T16:09:09.703Z,47.72
2022-11-24T16:11:39.720Z,43.18
2022-11-24T16:14:09.492Z,45.48
2022-11-24T16:16:39.247Z,44.45
2022-11-24T16:19:11.197Z,41.84
2022-11-24T16:21:41.640Z,44.79
2022-11-24T16:24:11.750Z,40.34
2022-11-24T16:26:42.202Z,43.37
2022-11-24T16:29:12.500Z,47.50
2022-11-24T16:31:44.503Z,42.30
2022-11-24T16:34:15.703Z,39.91
2022-11-24T16:36:45.412Z,41.97
2022-11-24T16:39:15.098Z,46.03
2022-11-24T16:41:44.817Z,48.40
2022-11-24T16:44:14.674Z,45.36
2022-11-24T16:46:45.790Z,44.91
2022-11-24T16:49:15.484Z,46.13
2022-11-24T16:51:46.177Z,47.82
2022-11-24T16:54:16.213Z,45.50
2022-11-24T16:56:45.922Z,46.88
2022-11-24T16:59:15.624Z,45.09
2022-11-24T17:01:47.621Z,47.26
2022-11-24T17:04:18.095Z,45.91
2022-11-24T17:06:48.186Z,50.15
2022-11-24T17:09:18.787Z,46.80
2022-11-24T17:11:48.663Z,49.38
2022-11-24T17:14:18.436Z,50.41
2022-11-24T17:16:48.543Z,47.31
2022-11-24T17:19:18.282Z,51.88
2022-11-24T17:21:48.001Z,43.35
2022-11-24T17:24:19.203Z,42.02
2022-11-24T17:26:52.542Z,45.40
2022-11-24T17:29:22.607Z,46.52
2022-11-24T17:31:52.346Z,47.86
2022-11-24T17:34:22.901Z,46.43
2022-11-24T17:36:52.772Z,48.42
2022-11-24T17:39:24.943Z,45.17
2022-11-24T17:41:55.172Z,44.29
2022-11-24T17:44:24.865Z,44.90
2022-11-24T17:46:54.625Z,47.77
2022-11-24T17:49:24.426Z,49.96
2022-11-24T17:51:54.102Z,47.88
2022-11-24T17:54:46.460Z,46.26
2022-11-24T17:57:13.888Z,45.43
2022-11-24T17:59:43.807Z,47.84
2022-11-24T18:02:13.689Z,45.75
2022-11-24T18:04:43.637Z,48.68
2022-11-24T18:07:13.554Z,45.56
2022-11-24T18:09:43.402Z,45.90
2022-11-24T18:12:14.057Z,44.86
2022-11-24T18:14:44.219Z,45.61
2022-11-24T18:17:14.593Z,47.22
2022-11-24T18:19:44.689Z,46.96
2022-11-24T18:22:14.794Z,47.16
2022-11-24T18:24:44.806Z,45.70
2022-11-24T18:27:14.865Z,45.84
2022-11-24T18:29:45.345Z,47.61
2022-11-24T18:32:15.513Z,48.57
2022-11-24T18:34:45.636Z,48.80
2022-11-24T18:37:17.637Z,48.78
2022-11-24T18:39:48.101Z,48.61
2022-11-24T18:42:19.220Z,50.07
2022-11-24T18:44:52.676Z,51.52
2022-11-24T18:47:25.188Z,50.59
2022-11-24T18:49:55.628Z,50.88
2022-11-24T18:52:25.770Z,50.99
2022-11-24T18:54:55.787Z,53.29
2022-11-24T18:57:25.836Z,51.77
2022-11-24T18:59:55.877Z,54.37
2022-11-24T19:02:25.943Z,54.94
2022-11-24T19:04:56.256Z,55.66
2022-11-24T19:07:26.460Z,55.03
2022-11-24T19:09:56.501Z,55.37
2022-11-24T19:12:26.574Z,54.52
2022-11-24T19:14:56.621Z,55.21
2022-11-24T19:17:26.923Z,53.84
2022-11-24T19:19:57.631Z,58.43
2022-11-24T19:22:27.937Z,57.47
2022-11-24T19:24:58.404Z,57.68
2022-11-24T19:27:28.504Z,57.90
2022-11-24T19:29:59.064Z,58.34
2022-11-24T19:32:29.957Z,60.63
2022-11-24T19:35:00.424Z,60.16
2022-11-24T19:37:31.523Z,58.29
2022-11-24T19:40:01.578Z,59.08
2022-11-24T19:42:31.689Z,59.66
2022-11-24T19:45:02.048Z,61.38
2022-11-24T19:47:32.144Z,58.98
2022-11-24T19:50:07.326Z,57.51
2022-11-24T19:52:40.935Z,57.76
2022-11-24T19:55:11.459Z,60.13
2022-11-24T19:57:41.610Z,63.48
2022-11-24T20:00:12.123Z,61.24
2022-11-24T20:02:42.665Z,62.08
2022-11-24T20:05:12.777Z,60.91
2022-11-24T20:07:42.978Z,63.16
2022-11-24T20:10:14.085Z,61.75
2022-11-24T20:12:44.370Z,63.21
2022-11-24T20:15:14.454Z,64.83
2022-11-24T20:17:44.485Z,64.34
2022-11-24T20:20:14.988Z,65.01
2022-11-24T20:22:45.568Z,63.62
2022-11-24T20:25:15.633Z,64.72
2022-11-24T20:27:46.893Z,63.65
2022-11-24T20:30:17.452Z,64.31
2022-11-24T20:32:47.568Z,65.36
2022-11-24T20:35:18.448Z,64.14
2022-11-24T20:37:51.755Z,64.57
2022-11-24T20:40:21.971Z,64.52
2022-11-24T20:42:52.148Z,64.72
2022-11-24T20:45:22.450Z,65.10
2022-11-24T20:47:52.540Z,65.46
2022-11-24T20:50:22.556Z,65.64
2022-11-24T20:52:52.588Z,65.83
2022-11-24T20:55:23.764Z,65.47
2022-11-24T20:57:54.650Z,65.11
2022-11-24T21:00:24.760Z,65.33
2022-11-24T21:02:57.769Z,66.23
2022-11-24T21:05:28.597Z,65.39
2022-11-24T21:07:58.647Z,65.67
2022-11-24T21:10:28.651Z,67.35
2022-11-24T21:12:59.409Z,66.39
2022-11-24T21:15:31.123Z,67.55
2022-11-24T21:18:01.626Z,68.46
2022-11-24T21:20:31.633Z,67.94
2022-11-24T21:23:01.653Z,68.32
2022-11-24T21:25:33.118Z,67.79
2022-11-24T21:28:03.549Z,68.89
2022-11-24T21:30:34.873Z,68.39
2022-11-24T21:33:06.680Z,68.80
2022-11-24T21:35:39.450Z,69.86
2022-11-24T21:38:10.182Z,70.34
2022-11-24T21:40:42.761Z,69.31
2022-11-24T21:43:15.817Z,68.64
2022-11-24T21:45:45.756Z,70.05
2022-11-24T21:48:16.378Z,70.68
2022-11-24T21:50:46.400Z,71.32
2022-11-24T21:53:16.411Z,70.98
2022-11-24T21:55:54.925Z,71.12
2022-11-24T21:58:25.893Z,72.24
2022-11-24T22:00:57.842Z,72.38
2022-11-24T22:03:28.252Z,72.19
2022-11-24T22:06:00.003Z,73.79
2022-11-24T22:08:31.535Z,74.01
2022-11-24T22:11:17.213Z,73.80
2022-11-24T22:13:48.239Z,75.09
2022-11-24T22:16:24.016Z,74.70
2022-11-24T22:18:53.857Z,73.78
2022-11-24T22:21:26.837Z,75.23
2022-11-24T22:23:57.061Z,75.09
2022-11-24T22:26:29.304Z,75.36
2022-11-24T22:29:00.108Z,75.53
2022-11-24T22:31:33.824Z,76.25
2022-11-24T22:34:04.937Z,76.51
2022-11-24T22:36:37.860Z,77.07
2022-11-24T22:39:08.445Z,76.69
2022-11-24T22:41:38.455Z,77.39
2022-11-24T22:44:08.565Z,77.41
2022-11-24T22:46:38.606Z,76.59
2022-11-24T22:49:09.638Z,77.52
2022-11-24T22:51:40.958Z,77.62
2022-11-24T22:54:15.050Z,78.04
2022-11-24T22:56:45.334Z,78.72
2022-11-24T22:59:15.964Z,77.34
2022-11-24T23:01:46.333Z,77.84
2022-11-24T23:04:16.602Z,78.09
2022-11-24T23:06:47.285Z,78.45
2022-11-24T23:09:17.675Z,79.57
2022-11-24T23:11:48.687Z,79.49
2022-11-24T23:14:19.095Z,79.70
2022-11-24T23:16:49.252Z,79.98
2022-11-24T23:19:19.410Z,81.32
2022-11-24T23:21:49.505Z,81.52
2022-11-24T23:24:19.747Z,82.51
2022-11-24T23:26:50.100Z,83.71
2022-11-24T23:29:20.158Z,82.98
2022-11-24T23:31:50.334Z,83.76
2022-11-24T23:34:20.453Z,83.52
2022-11-24T23:36:50.538Z,83.91
2022-11-24T23:39:20.569Z,84.30
2022-11-24T23:41:50.614Z,85.23
2022-11-24T23:44:20.623Z,85.73
2022-11-24T23:46:50.691Z,86.74
2022-11-24T23:49:21.109Z,86.88
2022-11-24T23:51:51.145Z,86.91
2022-11-24T23:54:21.179Z,87.52
2022-11-24T23:56:51.216Z,88.00
2022-11-24T23:59:21.413Z,88.07
